Latest Weather Observations for Broome

IDW60801

Issued at 11:03 pm WST Tuesday 17 January 2017 (issued every 30 minutes, with the page automatically refreshed every 10 minutes)

About weather observations | Map of weather stations | Latest weather observations for WA | Other Formats
Station Details ID: 003003 Name: BROOME AIRPORT Lat: -17.95 Lon: 122.24 Height: 7.42 m
Data from the previous 72 hours. | See also: Recent months at Broome
Date/Time
WST
Temp
°C
App
Temp
°C
Dew
Point
°C
Rel
Hum
%
Delta-T
°C
Wind Press
QNH
hPa
Press
MSL
hPa
Rain since
9am
mm
Dir  Spd
km/h
Gust
km/h
Spd
kts
Gust
kts
17/11:00pm 29.0 33.2 26.0 84 2.1 W 15 19 8 10 1007.1 - 1.4
17/10:30pm 28.8 34.0 26.3 86 1.8 WNW 11 15 6 8 1007.7 - 1.4
17/10:00pm 28.8 34.6 26.6 88 1.6 WNW 9 15 5 8 1007.8 - 1.4
17/09:30pm 28.5 33.8 26.4 88 1.5 WNW 11 15 6 8 1007.5 - 1.2
17/09:00pm 28.6 36.4 27.1 92 1.1 CALM 0 0 0 0 1007.5 1007.4 1.2
17/08:30pm 28.4 33.9 26.7 90 1.2 W 11 13 6 7 1007.0 - 0.8
17/08:00pm 28.8 32.9 25.8 84 2.1 W 15 20 8 11 1006.8 - 0.0
17/07:30pm 29.8 33.8 25.1 76 3.3 NW 13 17 7 9 1006.2 - 0.0
17/07:00pm 29.8 33.9 24.5 73 3.7 NW 11 17 6 9 1005.9 - 0.0
17/06:30pm 29.7 34.1 25.0 76 3.3 NNW 11 15 6 8 1005.3 - 0.0
17/06:00pm 29.9 34.8 25.2 76 3.3 NNW 9 11 5 6 1005.3 1005.2 0.0
17/05:30pm 30.0 34.4 25.0 74 3.5 NW 11 15 6 8 1005.2 - 0.0
17/05:00pm 30.0 34.5 25.2 75 3.4 WNW 11 15 6 8 1004.9 - 0.0
17/04:30pm 30.1 34.5 25.6 77 3.2 NW 13 17 7 9 1004.5 - 0.0
17/04:00pm 30.1 33.4 25.1 74 3.5 W 17 22 9 12 1004.4 - 0.0
17/03:30pm 30.5 33.0 24.8 71 4.0 W 20 26 11 14 1004.5 - 0.0
17/03:00pm 30.9 32.9 25.1 71 4.1 W 24 32 13 17 1004.5 1004.4 0.0
17/02:30pm 31.6 33.8 24.8 67 4.8 W 22 33 12 18 1004.6 - 0.0
17/02:00pm 31.6 33.0 24.8 67 4.8 WNW 26 33 14 18 1004.6 - 0.0
17/01:30pm 32.1 34.9 25.8 69 4.5 WNW 22 30 12 16 1004.9 - 0.0
17/01:00pm 31.7 33.7 25.2 68 4.6 WNW 24 30 13 16 1005.1 - 0.0
17/12:30pm 31.7 33.9 24.9 67 4.8 WNW 22 32 12 17 1005.6 - 0.0
17/12:00pm 31.6 34.0 25.2 69 4.5 WNW 22 32 12 17 1005.9 1005.8 0.0
17/11:30am 31.2 34.2 25.6 72 4.0 NW 20 28 11 15 1006.2 - 0.0
17/11:00am 31.1 33.9 25.3 71 4.1 NW 20 24 11 13 1006.5 - 0.0
17/10:30am 31.4 34.2 24.9 68 4.6 NW 19 30 10 16 1006.6 - 0.0
17/10:00am 30.8 34.0 25.0 71 4.1 NW 17 26 9 14 1006.6 - 0.0
17/09:30am 30.5 33.6 24.8 71 4.0 NW 17 22 9 12 1007.0 - 0.0
17/09:00am 30.3 33.5 25.5 75 3.4 NW 19 26 10 14 1007.0 1006.9 0.0
17/08:30am 31.0 34.1 25.4 72 4.0 NW 19 26 10 14 1006.9 - 0.0
17/08:00am 30.9 33.6 24.8 70 4.3 NW 19 28 10 15 1006.7 - 0.0
17/07:30am 30.2 33.6 25.2 74 3.5 NW 17 24 9 13 1006.7 - 0.0
17/07:00am 29.7 33.7 25.6 78 2.9 NW 15 20 8 11 1006.6 - 0.0
17/06:30am 28.9 34.8 25.9 84 2.1 NNE 6 7 3 4 1006.4 - 0.0
17/06:00am 29.0 34.1 25.6 82 2.4 NNW 9 15 5 8 1006.2 1006.1 0.0
17/05:30am 28.5 33.9 25.5 84 2.1 N 7 9 4 5 1005.7 - 0.0
17/05:00am 27.2 32.6 25.5 90 1.2 NNE 7 9 4 5 1005.6 - 0.0
17/04:30am 27.2 32.6 25.4 90 1.3 NNE 7 9 4 5 1005.6 - 0.0
17/04:00am 27.4 33.7 25.4 89 1.4 NNE 2 7 1 4 1005.5 - 0.0
17/03:30am 29.0 34.3 25.2 80 2.7 NNW 7 11 4 6 1005.4 - 0.0
17/03:00am 28.9 33.3 25.1 80 2.7 NNW 11 17 6 9 1005.4 1005.3 0.0
17/02:30am 29.1 33.9 25.1 79 2.8 NNW 9 15 5 8 1005.5 - 0.0
17/02:00am 29.2 33.1 24.9 77 3.0 NNW 13 17 7 9 1005.4 - 0.0
17/01:30am 29.2 33.3 25.2 79 2.8 NNW 13 17 7 9 1005.3 - 0.0
17/01:00am 29.2 33.5 24.9 77 3.0 NNW 11 17 6 9 1005.4 - 0.0
17/12:30am 28.8 33.5 25.0 80 2.7 N 9 13 5 7 1005.6 - 0.0
17/12:00am 27.9 33.0 25.0 84 2.0 N 7 9 4 5 1006.2 1006.1 0.0
 
Date/Time
WST
Temp
°C
App
Temp
°C
Dew
Point
°C
Rel
Hum
%
Delta-T
°C
Wind Press
QNH
hPa
Press
MSL
hPa
Rain since
9am
mm
Dir  Spd
km/h
Gust
km/h
Spd
kts
Gust
kts
16/11:30pm 27.9 33.2 25.2 85 1.9 NE 7 9 4 5 1006.7 - 0.0
16/11:00pm 28.6 33.7 25.0 81 2.5 N 7 11 4 6 1006.8 - 0.0
16/10:30pm 29.0 33.2 24.7 77 3.0 N 11 15 6 8 1006.8 - 0.0
16/10:00pm 29.2 33.4 24.8 77 3.1 N 11 17 6 9 1006.9 - 0.0
16/09:30pm 29.4 33.6 24.8 76 3.2 N 11 17 6 9 1006.9 - 0.0
16/09:00pm 29.7 32.7 24.7 74 3.5 NNW 17 20 9 11 1006.6 1006.5 0.0
16/08:30pm 29.8 33.1 24.5 73 3.7 NNW 15 24 8 13 1006.7 - 0.0
16/08:00pm 29.9 33.6 24.6 73 3.7 NNW 13 22 7 12 1006.5 - 0.0
16/07:30pm 29.8 33.0 25.0 75 3.4 NNW 17 22 9 12 1006.1 - 0.0
16/07:00pm 29.8 33.4 25.0 75 3.4 NNW 15 20 8 11 1006.2 - 0.0
16/06:30pm 30.0 32.8 24.9 74 3.6 NNW 19 26 10 14 1005.9 - 0.0
16/06:00pm 30.3 32.6 24.4 70 4.1 NW 20 35 11 19 1005.5 1005.4 0.0
16/05:30pm 30.6 32.7 24.1 68 4.5 NW 20 28 11 15 1005.3 - 0.0
16/05:00pm 31.0 33.1 24.1 66 4.8 NW 20 30 11 16 1004.9 - 0.0
16/04:30pm 31.3 33.5 24.3 66 4.9 NW 20 28 11 15 1004.5 - 0.0
16/04:00pm 31.7 33.0 24.1 64 5.3 NW 24 33 13 18 1004.3 - 0.0
16/03:30pm 31.8 34.1 24.4 65 5.2 NW 20 32 11 17 1004.7 - 0.0
16/03:00pm 31.6 33.6 25.2 69 4.5 NW 24 33 13 18 1004.9 1004.8 0.0
16/02:30pm 31.6 32.9 24.6 66 4.9 WNW 26 32 14 17 1005.1 - 0.0
16/02:00pm 31.7 33.8 24.7 66 4.9 WNW 22 32 12 17 1005.4 - 0.0
16/01:30pm 31.8 33.8 24.5 65 5.1 WNW 22 32 12 17 1005.9 - 0.0
16/01:00pm 32.0 34.4 24.6 65 5.2 WNW 20 30 11 16 1006.2 - 0.0
16/12:30pm 31.9 33.9 25.1 67 4.8 NW 24 33 13 18 1006.4 - 0.0
16/12:00pm 31.8 34.6 25.3 68 4.6 NW 20 30 11 16 1006.8 1006.7 0.0
16/11:30am 31.5 34.2 25.1 69 4.5 WNW 20 33 11 18 1007.0 - 0.0
16/11:00am 31.7 34.5 24.9 67 4.8 WNW 19 26 10 14 1007.2 - 0.0
16/10:30am 31.6 34.2 24.6 66 4.9 WNW 19 28 10 15 1007.5 - 0.0
16/10:00am 31.5 34.8 24.5 66 4.9 WNW 15 24 8 13 1007.9 - 0.0
16/09:30am 30.6 33.7 24.8 71 4.1 NW 17 24 9 13 1008.2 - 0.0
16/09:00am 30.6 33.7 24.8 71 4.1 NNW 17 24 9 13 1008.2 1008.1 0.0
16/08:30am 31.2 34.2 24.6 68 4.6 NNW 17 24 9 13 1008.0 - 0.0
16/08:00am 30.4 33.8 24.7 71 4.0 NW 15 20 8 11 1008.0 - 0.0
16/07:30am 29.7 34.0 24.9 75 3.4 NNW 11 17 6 9 1007.9 - 0.0
16/07:00am 29.2 33.5 24.9 77 3.0 NNW 11 15 6 8 1007.6 - 0.0
16/06:30am 28.9 33.6 24.9 79 2.8 NNW 9 13 5 7 1007.4 - 0.0
16/06:00am 28.4 33.0 24.7 80 2.6 NNW 9 13 5 7 1007.1 1007.0 0.0
16/05:30am 28.4 32.8 24.4 79 2.8 NNW 9 13 5 7 1006.8 - 0.0
16/05:00am 28.5 32.6 24.5 79 2.8 NW 11 19 6 10 1006.5 - 0.0
16/04:30am 28.6 32.2 24.3 77 3.0 NW 13 17 7 9 1006.5 - 0.0
16/04:00am 28.6 31.7 24.1 76 3.1 NW 15 20 8 11 1006.4 - 0.0
16/03:30am 28.8 31.9 23.6 73 3.6 NW 13 20 7 11 1006.2 - 0.0
16/03:00am 28.8 32.6 24.7 78 2.9 NW 13 20 7 11 1006.4 1006.3 0.0
16/02:30am 28.8 32.2 24.7 78 2.9 NW 15 20 8 11 1006.4 - 0.0
16/02:00am 28.8 32.1 24.5 77 3.0 NW 15 20 8 11 1006.7 - 0.0
16/01:30am 28.8 32.1 24.5 77 3.0 NW 15 20 8 11 1006.7 - 0.0
16/01:00am 28.8 32.0 24.3 76 3.1 NW 15 22 8 12 1006.9 - 0.0
16/12:30am 28.7 32.6 24.8 79 2.7 NW 13 17 7 9 1007.0 - 0.0
16/12:00am 28.8 32.5 24.6 78 2.9 NW 13 20 7 11 1007.4 1007.3 0.0
 
Date/Time
WST
Temp
°C
App
Temp
°C
Dew
Point
°C
Rel
Hum
%
Delta-T
°C
Wind Press
QNH
hPa
Press
MSL
hPa
Rain since
9am
mm
Dir  Spd
km/h
Gust
km/h
Spd
kts
Gust
kts
15/11:30pm 28.6 33.0 25.0 81 2.5 NNW 11 19 6 10 1007.5 - 0.0
15/11:00pm 28.7 32.2 24.8 79 2.7 NNW 15 20 8 11 1007.6 - 0.0
15/10:30pm 28.7 32.6 24.8 79 2.7 NNW 13 20 7 11 1007.9 - 0.0
15/10:00pm 28.4 32.8 25.1 82 2.3 NNW 11 17 6 9 1008.2 - 0.0
15/09:30pm 28.1 30.8 23.4 75 3.2 NNW 15 20 8 11 1008.3 - 0.0
15/09:00pm 29.1 32.9 25.3 80 2.7 NNW 15 26 8 14 1008.2 1008.1 0.0
15/08:30pm 29.4 32.7 24.5 75 3.4 NNW 15 20 8 11 1008.1 - 0.0
15/08:00pm 29.4 32.4 24.7 76 3.3 NNW 17 22 9 12 1007.6 - 0.0
15/07:30pm 29.5 32.1 24.6 75 3.4 NNW 19 26 10 14 1007.4 - 0.0
15/07:00pm 29.6 32.6 24.6 74 3.5 NNW 17 26 9 14 1007.1 - 0.0
15/06:30pm 29.8 32.7 24.5 73 3.7 NNW 17 24 9 13 1006.9 - 0.0
15/06:00pm 30.0 33.0 24.6 73 3.8 NNW 17 24 9 13 1006.6 1006.5 0.0
15/05:30pm 30.1 32.4 24.4 71 4.0 NNW 20 30 11 16 1006.2 - 0.0
15/05:00pm 30.3 32.2 24.4 70 4.1 NNW 22 30 12 16 1005.9 - 0.0
15/04:30pm 30.7 32.9 24.3 68 4.5 NNW 20 26 11 14 1006.0 - 0.0
15/04:00pm 30.4 33.0 24.9 72 3.9 NW 20 28 11 15 1006.0 - 0.0
15/03:30pm 30.5 33.4 25.1 73 3.8 NW 19 26 10 14 1005.8 - 0.0
15/03:00pm 30.7 33.0 25.0 71 4.0 NW 22 30 12 16 1005.9 1005.8 0.0
15/02:30pm 31.6 33.6 24.6 66 4.9 NW 22 32 12 17 1006.0 - 0.0
15/02:00pm 30.8 33.9 24.8 70 4.2 NW 17 24 9 13 1006.4 - 0.0
15/01:30pm 30.4 34.1 25.2 74 3.7 NW 15 20 8 11 1006.9 - 0.0
15/01:00pm 30.5 32.1 24.5 70 4.2 NW 24 32 13 17 1006.9 - 0.0
15/12:30pm 32.1 33.0 24.6 64 5.3 WNW 28 35 15 19 1006.5 - 0.0
15/12:00pm 31.8 34.2 25.2 68 4.7 WNW 22 32 12 17 1007.0 1006.9 0.0
15/11:30am 31.3 34.1 25.2 70 4.3 W 20 24 11 13 1007.2 - 0.0
15/11:00am 31.3 33.5 24.0 65 5.1 NW 19 22 10 12 1007.6 - 0.0
15/10:30am 31.8 33.9 23.7 62 5.6 WNW 19 24 10 13 1007.6 - 0.0
15/10:00am 31.6 34.8 24.3 65 5.1 NW 15 20 8 11 1008.0 - 0.0
15/09:30am 32.2 35.4 24.4 63 5.5 NW 15 20 8 11 1008.2 - 0.0
15/09:00am 31.2 34.4 23.7 64 5.2 NW 13 19 7 10 1008.3 1008.2 0.0
15/08:30am 31.1 34.5 24.1 66 4.9 NW 13 17 7 9 1008.1 - 0.0
15/08:00am 30.2 34.5 24.3 70 4.1 NW 9 15 5 8 1008.0 - 0.0
15/07:30am 29.8 34.8 25.4 77 3.1 N 9 15 5 8 1008.0 - 0.0
15/07:00am 29.4 34.3 25.3 78 2.9 N 9 13 5 7 1008.0 - 0.0
15/06:30am 28.1 33.1 25.4 85 1.9 N 9 11 5 6 1008.0 - 0.0
15/06:00am 27.3 32.6 25.2 88 1.5 N 7 9 4 5 1007.8 1007.7 0.0
15/05:30am 27.3 32.7 25.2 88 1.5 N 6 7 3 4 1007.6 - 0.0
15/05:00am 27.5 32.7 25.1 87 1.7 N 7 9 4 5 1007.3 - 0.0
15/04:30am 27.5 32.6 24.9 86 1.8 N 7 9 4 5 1007.1 - 0.0
15/04:00am 27.5 32.6 24.9 86 1.8 N 7 11 4 6 1007.0 - 0.0
15/03:30am 27.2 32.4 25.1 88 1.5 N 7 9 4 5 1006.7 - 0.0
15/03:00am 27.2 32.4 25.1 88 1.5 N 7 9 4 5 1006.4 1006.3 0.0
15/02:30am 27.2 32.4 25.1 88 1.5 NNE 7 9 4 5 1006.5 - 0.0
15/02:00am 27.3 32.4 25.0 87 1.6 N 7 9 4 5 1006.4 - 0.0
15/01:30am 27.6 32.7 24.9 85 1.9 N 7 9 4 5 1006.7 - 0.0
15/01:00am 27.6 32.9 25.0 86 1.8 N 6 7 3 4 1006.8 - 0.0
15/12:30am 27.6 32.9 25.0 86 1.8 NNE 6 9 3 5 1007.2 - 0.0
15/12:00am 27.7 32.8 25.0 85 1.9 N 7 9 4 5 1007.4 1007.3 0.0
 
Date/Time
WST
Temp
°C
App
Temp
°C
Dew
Point
°C
Rel
Hum
%
Delta-T
°C
Wind Press
QNH
hPa
Press
MSL
hPa
Rain since
9am
mm
Dir  Spd
km/h
Gust
km/h
Spd
kts
Gust
kts
14/11:30pm 28.1 33.1 24.8 82 2.3 N 7 9 4 5 1007.8 - 0.0

Other Formats:

Comma delimited format used in spreadsheet applications
http://www.bom.gov.au/fwo/IDW60801/IDW60801.94203.axf

JavaScript Object Notation format (JSON) in row-major order
http://www.bom.gov.au/fwo/IDW60801/IDW60801.94203.json